sensor_id;sensor_type;location;lat;lon;timestamp;P1;durP1;ratioP1;P2;durP2;ratioP2
6941;SDS011;3510;43.200;27.920;2023-03-19T02:08:08;39.67;;;30.00;;
6941;SDS011;3510;43.200;27.920;2023-03-19T02:10:37;40.53;;;31.35;;
6941;SDS011;3510;43.200;27.920;2023-03-19T02:13:06;40.13;;;28.17;;
6941;SDS011;3510;43.200;27.920;2023-03-19T02:15:35;41.78;;;28.67;;
6941;SDS011;3510;43.200;27.920;2023-03-19T02:18:03;40.10;;;24.10;;
6941;SDS011;3510;43.200;27.920;2023-03-19T02:20:31;38.13;;;23.10;;
6941;SDS011;3510;43.200;27.920;2023-03-19T02:23:04;36.33;;;21.10;;
6941;SDS011;3510;43.200;27.920;2023-03-19T02:25:40;37.77;;;21.60;;
6941;SDS011;3510;43.200;27.920;2023-03-19T02:28:18;42.17;;;22.33;;
6941;SDS011;3510;43.200;27.920;2023-03-19T02:30:46;37.17;;;20.97;;
6941;SDS011;3510;43.200;27.920;2023-03-19T02:33:14;40.37;;;22.17;;
6941;SDS011;3510;43.200;27.920;2023-03-19T02:35:43;40.13;;;25.57;;
6941;SDS011;3510;43.200;27.920;2023-03-19T02:38:11;34.10;;;20.80;;
6941;SDS011;3510;43.200;27.920;2023-03-19T02:40:40;41.67;;;27.50;;
6941;SDS011;3510;43.200;27.920;2023-03-19T02:43:15;47.10;;;28.93;;
6941;SDS011;3510;43.200;27.920;2023-03-19T02:45:41;43.53;;;30.00;;
6941;SDS011;3510;43.200;27.920;2023-03-19T02:48:08;46.00;;;31.13;;
6941;SDS011;3510;43.200;27.920;2023-03-19T02:50:35;44.00;;;26.13;;
6941;SDS011;3510;43.200;27.920;2023-03-19T02:53:02;45.50;;;26.30;;
6941;SDS011;3510;43.200;27.920;2023-03-19T03:00:23;37.40;;;24.80;;
6941;SDS011;3510;43.200;27.920;2023-03-19T03:02:50;36.70;;;19.40;;
6941;SDS011;3510;43.200;27.920;2023-03-19T03:05:18;35.40;;;19.73;;
6941;SDS011;3510;43.200;27.920;2023-03-19T03:07:45;37.50;;;19.83;;
6941;SDS011;3510;43.200;27.920;2023-03-19T03:10:14;39.17;;;25.03;;
6941;SDS011;3510;43.200;27.920;2023-03-19T03:12:42;36.63;;;21.13;;
6941;SDS011;3510;43.200;27.920;2023-03-19T03:15:10;45.13;;;22.87;;
6941;SDS011;3510;43.200;27.920;2023-03-19T03:17:40;37.83;;;19.57;;
6941;SDS011;3510;43.200;27.920;2023-03-19T03:20:08;42.47;;;21.30;;
6941;SDS011;3510;43.200;27.920;2023-03-19T03:22:38;39.30;;;21.53;;
6941;SDS011;3510;43.200;27.920;2023-03-19T03:25:07;41.30;;;21.70;;
6941;SDS011;3510;43.200;27.920;2023-03-19T03:27:36;38.00;;;21.50;;
6941;SDS011;3510;43.200;27.920;2023-03-19T03:30:17;37.00;;;19.53;;
6941;SDS011;3510;43.200;27.920;2023-03-19T03:38:38;39.80;;;20.60;;
6941;SDS011;3510;43.200;27.920;2023-03-19T03:41:05;38.72;;;24.15;;
6941;SDS011;3510;43.200;27.920;2023-03-19T03:43:46;37.60;;;24.80;;
6941;SDS011;3510;43.200;27.920;2023-03-19T03:46:14;37.08;;;24.40;;
6941;SDS011;3510;43.200;27.920;2023-03-19T04:39:04;28.10;;;20.35;;
6941;SDS011;3510;43.200;27.920;2023-03-19T04:41:32;25.50;;;18.95;;
6941;SDS011;3510;43.200;27.920;2023-03-19T04:44:00;27.02;;;17.67;;
6941;SDS011;3510;43.200;27.920;2023-03-19T04:46:27;26.02;;;17.30;;
6941;SDS011;3510;43.200;27.920;2023-03-19T04:48:53;24.90;;;17.50;;
6941;SDS011;3510;43.200;27.920;2023-03-19T04:51:20;26.00;;;17.75;;
6941;SDS011;3510;43.200;27.920;2023-03-19T04:53:47;27.90;;;17.75;;
6941;SDS011;3510;43.200;27.920;2023-03-19T04:56:14;28.13;;;17.65;;
6941;SDS011;3510;43.200;27.920;2023-03-19T04:58:42;26.97;;;18.70;;
6941;SDS011;3510;43.200;27.920;2023-03-19T05:01:10;21.20;;;10.70;;
6941;SDS011;3510;43.200;27.920;2023-03-19T05:23:29;29.52;;;21.58;;
6941;SDS011;3510;43.200;27.920;2023-03-19T05:25:56;29.67;;;21.85;;
6941;SDS011;3510;43.200;27.920;2023-03-19T05:28:24;29.60;;;21.67;;
6941;SDS011;3510;43.200;27.920;2023-03-19T05:30:52;28.90;;;20.45;;
6941;SDS011;3510;43.200;27.920;2023-03-19T05:33:18;33.07;;;20.50;;
6941;SDS011;3510;43.200;27.920;2023-03-19T05:36:01;21.73;;;14.40;;
6941;SDS011;3510;43.200;27.920;2023-03-19T05:38:28;21.47;;;14.20;;
6941;SDS011;3510;43.200;27.920;2023-03-19T06:27:33;13.98;;;10.05;;
6941;SDS011;3510;43.200;27.920;2023-03-19T06:29:59;14.30;;;9.47;;
6941;SDS011;3510;43.200;27.920;2023-03-19T06:32:26;13.43;;;10.37;;
6941;SDS011;3510;43.200;27.920;2023-03-19T06:34:53;10.13;;;7.87;;
6941;SDS011;3510;43.200;27.920;2023-03-19T06:37:20;13.97;;;9.43;;
6941;SDS011;3510;43.200;27.920;2023-03-19T06:39:47;13.47;;;9.67;;
6941;SDS011;3510;43.200;27.920;2023-03-19T06:42:15;13.73;;;9.87;;
6941;SDS011;3510;43.200;27.920;2023-03-19T06:44:43;11.33;;;9.53;;
6941;SDS011;3510;43.200;27.920;2023-03-19T06:47:10;12.95;;;11.13;;
6941;SDS011;3510;43.200;27.920;2023-03-19T06:49:37;11.05;;;9.85;;
6941;SDS011;3510;43.200;27.920;2023-03-19T06:52:04;12.30;;;10.00;;
6941;SDS011;3510;43.200;27.920;2023-03-19T06:54:31;12.33;;;9.63;;
6941;SDS011;3510;43.200;27.920;2023-03-19T08:25:28;9.93;;;7.30;;
6941;SDS011;3510;43.200;27.920;2023-03-19T08:27:57;7.50;;;6.80;;
6941;SDS011;3510;43.200;27.920;2023-03-19T08:30:24;8.73;;;7.67;;
6941;SDS011;3510;43.200;27.920;2023-03-19T08:32:52;9.32;;;8.32;;
6941;SDS011;3510;43.200;27.920;2023-03-19T08:35:18;8.20;;;7.50;;
6941;SDS011;3510;43.200;27.920;2023-03-19T08:37:45;8.73;;;7.97;;
6941;SDS011;3510;43.200;27.920;2023-03-19T08:40:12;8.60;;;7.90;;
6941;SDS011;3510;43.200;27.920;2023-03-19T08:42:39;8.32;;;7.63;;
6941;SDS011;3510;43.200;27.920;2023-03-19T08:45:08;9.48;;;8.27;;
6941;SDS011;3510;43.200;27.920;2023-03-19T08:47:36;8.73;;;7.95;;
6941;SDS011;3510;43.200;27.920;2023-03-19T08:50:18;8.13;;;7.40;;
6941;SDS011;3510;43.200;27.920;2023-03-19T08:52:45;8.02;;;7.43;;
6941;SDS011;3510;43.200;27.920;2023-03-19T08:55:12;7.63;;;6.93;;
6941;SDS011;3510;43.200;27.920;2023-03-19T08:57:40;7.88;;;7.18;;
6941;SDS011;3510;43.200;27.920;2023-03-19T09:00:08;8.35;;;7.38;;
6941;SDS011;3510;43.200;27.920;2023-03-19T09:02:36;8.10;;;7.40;;
6941;SDS011;3510;43.200;27.920;2023-03-19T09:05:04;7.43;;;6.72;;
6941;SDS011;3510;43.200;27.920;2023-03-19T09:07:34;7.97;;;7.18;;
6941;SDS011;3510;43.200;27.920;2023-03-19T09:10:01;8.45;;;7.65;;
6941;SDS011;3510;43.200;27.920;2023-03-19T09:12:28;8.93;;;8.02;;
6941;SDS011;3510;43.200;27.920;2023-03-19T09:14:57;8.80;;;8.07;;
6941;SDS011;3510;43.200;27.920;2023-03-19T09:17:25;7.90;;;7.30;;
6941;SDS011;3510;43.200;27.920;2023-03-19T09:19:53;8.13;;;7.38;;
6941;SDS011;3510;43.200;27.920;2023-03-19T09:22:21;7.72;;;7.05;;
6941;SDS011;3510;43.200;27.920;2023-03-19T09:24:49;9.15;;;8.18;;
6941;SDS011;3510;43.200;27.920;2023-03-19T09:27:16;7.80;;;7.15;;
6941;SDS011;3510;43.200;27.920;2023-03-19T09:29:45;8.27;;;7.53;;
6941;SDS011;3510;43.200;27.920;2023-03-19T09:32:11;8.27;;;7.57;;
6941;SDS011;3510;43.200;27.920;2023-03-19T09:34:40;8.10;;;7.30;;
6941;SDS011;3510;43.200;27.920;2023-03-19T09:37:07;8.00;;;7.35;;
6941;SDS011;3510;43.200;27.920;2023-03-19T09:39:35;8.50;;;7.78;;
6941;SDS011;3510;43.200;27.920;2023-03-19T09:42:08;8.35;;;7.40;;
6941;SDS011;3510;43.200;27.920;2023-03-19T09:44:50;8.13;;;7.43;;
6941;SDS011;3510;43.200;27.920;2023-03-19T09:47:23;7.97;;;7.18;;
6941;SDS011;3510;43.200;27.920;2023-03-19T09:50:09;8.48;;;7.78;;
6941;SDS011;3510;43.200;27.920;2023-03-19T09:52:40;8.30;;;7.60;;
6941;SDS011;3510;43.200;27.920;2023-03-19T09:55:12;9.67;;;7.90;;
6941;SDS011;3510;43.200;27.920;2023-03-19T09:57:46;8.32;;;7.35;;
6941;SDS011;3510;43.200;27.920;2023-03-19T10:00:18;8.57;;;7.80;;
6941;SDS011;3510;43.200;27.920;2023-03-19T10:02:48;8.50;;;6.73;;
6941;SDS011;3510;43.200;27.920;2023-03-19T10:11:02;7.07;;;6.47;;
6941;SDS011;3510;43.200;27.920;2023-03-19T10:13:50;11.67;;;7.50;;
6941;SDS011;3510;43.200;27.920;2023-03-19T10:16:25;6.60;;;6.00;;
6941;SDS011;3510;43.200;27.920;2023-03-19T10:18:53;8.32;;;7.63;;
6941;SDS011;3510;43.200;27.920;2023-03-19T10:21:26;8.60;;;7.77;;
6941;SDS011;3510;43.200;27.920;2023-03-19T10:23:59;8.85;;;8.15;;
6941;SDS011;3510;43.200;27.920;2023-03-19T10:26:31;9.23;;;8.33;;
6941;SDS011;3510;43.200;27.920;2023-03-19T10:29:03;7.78;;;6.97;;
6941;SDS011;3510;43.200;27.920;2023-03-19T10:31:37;8.60;;;7.80;;
6941;SDS011;3510;43.200;27.920;2023-03-19T10:36:58;8.23;;;6.77;;
6941;SDS011;3510;43.200;27.920;2023-03-19T11:24:18;10.50;;;7.82;;
6941;SDS011;3510;43.200;27.920;2023-03-19T11:26:49;8.53;;;7.03;;
6941;SDS011;3510;43.200;27.920;2023-03-19T11:29:21;8.10;;;7.00;;
6941;SDS011;3510;43.200;27.920;2023-03-19T11:31:49;9.40;;;8.40;;
6941;SDS011;3510;43.200;27.920;2023-03-19T11:34:28;10.60;;;9.03;;
6941;SDS011;3510;43.200;27.920;2023-03-19T11:37:04;9.30;;;8.40;;
6941;SDS011;3510;43.200;27.920;2023-03-19T11:39:37;6.83;;;6.13;;
6941;SDS011;3510;43.200;27.920;2023-03-19T11:42:23;9.13;;;8.23;;
6941;SDS011;3510;43.200;27.920;2023-03-19T11:45:03;9.87;;;8.03;;
6941;SDS011;3510;43.200;27.920;2023-03-19T11:47:38;9.23;;;8.33;;
6941;SDS011;3510;43.200;27.920;2023-03-19T11:50:15;8.73;;;7.80;;
6941;SDS011;3510;43.200;27.920;2023-03-19T11:52:54;9.63;;;7.47;;
6941;SDS011;3510;43.200;27.920;2023-03-19T11:55:36;11.77;;;7.77;;
6941;SDS011;3510;43.200;27.920;2023-03-19T11:58:14;6.83;;;6.23;;
6941;SDS011;3510;43.200;27.920;2023-03-19T12:00:55;7.93;;;7.13;;
6941;SDS011;3510;43.200;27.920;2023-03-19T12:03:32;8.37;;;7.37;;
6941;SDS011;3510;43.200;27.920;2023-03-19T12:06:15;6.90;;;6.30;;
6941;SDS011;3510;43.200;27.920;2023-03-19T12:08:52;7.53;;;6.73;;
6941;SDS011;3510;43.200;27.920;2023-03-19T12:11:28;7.17;;;6.00;;
6941;SDS011;3510;43.200;27.920;2023-03-19T12:14:09;7.10;;;6.50;;
6941;SDS011;3510;43.200;27.920;2023-03-19T12:16:51;7.23;;;6.53;;
6941;SDS011;3510;43.200;27.920;2023-03-19T12:19:36;7.83;;;7.07;;
6941;SDS011;3510;43.200;27.920;2023-03-19T12:22:14;7.10;;;6.40;;
6941;SDS011;3510;43.200;27.920;2023-03-19T12:24:54;8.37;;;7.07;;
6941;SDS011;3510;43.200;27.920;2023-03-19T12:27:30;8.67;;;7.53;;
6941;SDS011;3510;43.200;27.920;2023-03-19T12:30:02;11.90;;;7.40;;
6941;SDS011;3510;43.200;27.920;2023-03-19T12:32:44;11.60;;;7.67;;
6941;SDS011;3510;43.200;27.920;2023-03-19T12:35:25;9.07;;;7.67;;
6941;SDS011;3510;43.200;27.920;2023-03-19T12:38:00;9.77;;;8.77;;
6941;SDS011;3510;43.200;27.920;2023-03-19T12:40:31;14.23;;;8.87;;
6941;SDS011;3510;43.200;27.920;2023-03-19T12:43:17;9.93;;;7.53;;
6941;SDS011;3510;43.200;27.920;2023-03-19T12:45:49;10.03;;;7.40;;
6941;SDS011;3510;43.200;27.920;2023-03-19T12:48:38;8.10;;;7.27;;
6941;SDS011;3510;43.200;27.920;2023-03-19T12:51:08;8.27;;;7.30;;
6941;SDS011;3510;43.200;27.920;2023-03-19T12:53:53;12.07;;;7.87;;
6941;SDS011;3510;43.200;27.920;2023-03-19T12:56:38;9.37;;;7.70;;
6941;SDS011;3510;43.200;27.920;2023-03-19T13:05:00;9.17;;;7.10;;
6941;SDS011;3510;43.200;27.920;2023-03-19T13:07:47;7.80;;;7.00;;
6941;SDS011;3510;43.200;27.920;2023-03-19T13:10:31;11.17;;;8.50;;
6941;SDS011;3510;43.200;27.920;2023-03-19T13:13:20;13.07;;;7.33;;
6941;SDS011;3510;43.200;27.920;2023-03-19T13:15:57;11.57;;;7.47;;
6941;SDS011;3510;43.200;27.920;2023-03-19T13:18:32;9.23;;;8.10;;
6941;SDS011;3510;43.200;27.920;2023-03-19T13:21:12;13.17;;;8.43;;
6941;SDS011;3510;43.200;27.920;2023-03-19T13:23:47;12.47;;;7.43;;
6941;SDS011;3510;43.200;27.920;2023-03-19T13:26:26;11.37;;;7.70;;
6941;SDS011;3510;43.200;27.920;2023-03-19T13:28:54;10.87;;;7.70;;
6941;SDS011;3510;43.200;27.920;2023-03-19T13:31:27;9.07;;;8.10;;
6941;SDS011;3510;43.200;27.920;2023-03-19T13:33:59;17.23;;;9.00;;
6941;SDS011;3510;43.200;27.920;2023-03-19T13:36:30;13.50;;;9.30;;
6941;SDS011;3510;43.200;27.920;2023-03-19T13:39:03;10.30;;;7.80;;
6941;SDS011;3510;43.200;27.920;2023-03-19T13:44:33;10.87;;;7.77;;
6941;SDS011;3510;43.200;27.920;2023-03-19T13:52:40;13.97;;;9.00;;
6941;SDS011;3510;43.200;27.920;2023-03-19T13:58:04;16.23;;;12.13;;
6941;SDS011;3510;43.200;27.920;2023-03-19T14:00:55;29.48;;;18.05;;
6941;SDS011;3510;43.200;27.920;2023-03-19T14:03:23;17.38;;;12.73;;
6941;SDS011;3510;43.200;27.920;2023-03-19T14:05:54;12.85;;;10.07;;
6941;SDS011;3510;43.200;27.920;2023-03-19T14:08:24;10.93;;;9.73;;
6941;SDS011;3510;43.200;27.920;2023-03-19T14:10:53;15.15;;;10.70;;
6941;SDS011;3510;43.200;27.920;2023-03-19T14:13:25;12.73;;;9.90;;
6941;SDS011;3510;43.200;27.920;2023-03-19T14:16:04;11.25;;;9.20;;
6941;SDS011;3510;43.200;27.920;2023-03-19T14:18:34;12.40;;;8.70;;
6941;SDS011;3510;43.200;27.920;2023-03-19T14:21:08;10.17;;;9.00;;
6941;SDS011;3510;43.200;27.920;2023-03-19T14:23:39;11.20;;;9.00;;
6941;SDS011;3510;43.200;27.920;2023-03-19T14:26:10;9.40;;;8.47;;
6941;SDS011;3510;43.200;27.920;2023-03-19T14:28:44;11.32;;;8.82;;
6941;SDS011;3510;43.200;27.920;2023-03-19T14:31:18;13.90;;;9.30;;
6941;SDS011;3510;43.200;27.920;2023-03-19T14:33:52;14.65;;;8.68;;
6941;SDS011;3510;43.200;27.920;2023-03-19T14:36:24;13.77;;;8.73;;
6941;SDS011;3510;43.200;27.920;2023-03-19T14:38:54;10.45;;;8.65;;
6941;SDS011;3510;43.200;27.920;2023-03-19T14:41:25;13.48;;;8.98;;
6941;SDS011;3510;43.200;27.920;2023-03-19T14:46:55;10.70;;;8.63;;
6941;SDS011;3510;43.200;27.920;2023-03-19T14:49:44;11.77;;;9.60;;
6941;SDS011;3510;43.200;27.920;2023-03-19T14:52:21;11.25;;;8.80;;
6941;SDS011;3510;43.200;27.920;2023-03-19T14:54:51;13.82;;;9.05;;
6941;SDS011;3510;43.200;27.920;2023-03-19T14:57:24;10.45;;;9.35;;
6941;SDS011;3510;43.200;27.920;2023-03-19T14:59:54;12.27;;;9.05;;
6941;SDS011;3510;43.200;27.920;2023-03-19T15:05:05;10.38;;;9.38;;
6941;SDS011;3510;43.200;27.920;2023-03-19T15:07:34;10.40;;;9.30;;
6941;SDS011;3510;43.200;27.920;2023-03-19T15:10:06;14.18;;;9.23;;
6941;SDS011;3510;43.200;27.920;2023-03-19T15:18:30;10.65;;;9.63;;
6941;SDS011;3510;43.200;27.920;2023-03-19T15:20:57;12.23;;;9.73;;
6941;SDS011;3510;43.200;27.920;2023-03-19T15:23:25;12.07;;;9.25;;
6941;SDS011;3510;43.200;27.920;2023-03-19T15:25:57;12.75;;;9.52;;
6941;SDS011;3510;43.200;27.920;2023-03-19T15:28:26;12.43;;;9.88;;
6941;SDS011;3510;43.200;27.920;2023-03-19T15:30:55;11.33;;;9.20;;
6941;SDS011;3510;43.200;27.920;2023-03-19T15:33:24;12.37;;;9.40;;
6941;SDS011;3510;43.200;27.920;2023-03-19T15:35:59;10.50;;;9.23;;
6941;SDS011;3510;43.200;27.920;2023-03-19T15:38:31;11.57;;;9.13;;
6941;SDS011;3510;43.200;27.920;2023-03-19T15:41:05;10.43;;;9.43;;
6941;SDS011;3510;43.200;27.920;2023-03-19T15:43:34;11.17;;;8.50;;
6941;SDS011;3510;43.200;27.920;2023-03-19T15:46:04;9.53;;;7.50;;
6941;SDS011;3510;43.200;27.920;2023-03-19T15:48:33;10.43;;;7.90;;
6941;SDS011;3510;43.200;27.920;2023-03-19T16:28:29;16.63;;;10.57;;
6941;SDS011;3510;43.200;27.920;2023-03-19T16:30:57;20.40;;;11.67;;
6941;SDS011;3510;43.200;27.920;2023-03-19T16:33:25;13.43;;;8.47;;
6941;SDS011;3510;43.200;27.920;2023-03-19T16:35:53;13.00;;;9.77;;
6941;SDS011;3510;43.200;27.920;2023-03-19T16:38:21;15.93;;;9.27;;
6941;SDS011;3510;43.200;27.920;2023-03-19T16:40:49;15.17;;;8.63;;
6941;SDS011;3510;43.200;27.920;2023-03-19T16:43:42;24.87;;;11.03;;
6941;SDS011;3510;43.200;27.920;2023-03-19T16:46:12;17.73;;;8.70;;
6941;SDS011;3510;43.200;27.920;2023-03-19T16:48:41;19.33;;;8.93;;
6941;SDS011;3510;43.200;27.920;2023-03-19T16:51:10;15.90;;;8.27;;
6941;SDS011;3510;43.200;27.920;2023-03-19T16:53:39;18.57;;;9.40;;
6941;SDS011;3510;43.200;27.920;2023-03-19T16:56:07;24.87;;;10.33;;
6941;SDS011;3510;43.200;27.920;2023-03-19T16:58:38;15.67;;;9.13;;
6941;SDS011;3510;43.200;27.920;2023-03-19T17:01:10;20.60;;;8.93;;
6941;SDS011;3510;43.200;27.920;2023-03-19T17:03:42;21.03;;;8.50;;
6941;SDS011;3510;43.200;27.920;2023-03-19T17:06:11;27.13;;;8.70;;
6941;SDS011;3510;43.200;27.920;2023-03-19T17:08:40;16.93;;;9.00;;
6941;SDS011;3510;43.200;27.920;2023-03-19T17:11:08;25.80;;;10.10;;
6941;SDS011;3510;43.200;27.920;2023-03-19T17:13:42;22.87;;;9.33;;
6941;SDS011;3510;43.200;27.920;2023-03-19T17:16:09;13.30;;;8.43;;
6941;SDS011;3510;43.200;27.920;2023-03-19T17:18:39;19.43;;;10.03;;
6941;SDS011;3510;43.200;27.920;2023-03-19T17:21:11;17.07;;;8.93;;
6941;SDS011;3510;43.200;27.920;2023-03-19T17:23:40;12.47;;;7.87;;
6941;SDS011;3510;43.200;27.920;2023-03-19T17:26:09;12.47;;;7.17;;
6941;SDS011;3510;43.200;27.920;2023-03-19T17:28:44;13.73;;;6.80;;
6941;SDS011;3510;43.200;27.920;2023-03-19T17:31:17;11.57;;;6.47;;
6941;SDS011;3510;43.200;27.920;2023-03-19T17:36:35;16.83;;;6.57;;
6941;SDS011;3510;43.200;27.920;2023-03-19T17:39:03;13.27;;;7.07;;
6941;SDS011;3510;43.200;27.920;2023-03-19T17:41:31;24.30;;;8.67;;
6941;SDS011;3510;43.200;27.920;2023-03-19T17:44:01;15.47;;;7.30;;
6941;SDS011;3510;43.200;27.920;2023-03-19T17:46:29;15.13;;;7.67;;
6941;SDS011;3510;43.200;27.920;2023-03-19T17:48:59;13.83;;;7.73;;
6941;SDS011;3510;43.200;27.920;2023-03-19T17:51:35;17.93;;;8.70;;
6941;SDS011;3510;43.200;27.920;2023-03-19T17:54:05;19.57;;;8.07;;
6941;SDS011;3510;43.200;27.920;2023-03-19T17:56:35;17.97;;;8.23;;
6941;SDS011;3510;43.200;27.920;2023-03-19T17:59:03;23.20;;;10.03;;
6941;SDS011;3510;43.200;27.920;2023-03-19T18:01:30;14.83;;;7.80;;
6941;SDS011;3510;43.200;27.920;2023-03-19T18:03:58;15.17;;;8.23;;
6941;SDS011;3510;43.200;27.920;2023-03-19T18:06:27;17.80;;;7.27;;
6941;SDS011;3510;43.200;27.920;2023-03-19T18:08:59;17.13;;;8.43;;
6941;SDS011;3510;43.200;27.920;2023-03-19T18:11:27;21.97;;;8.83;;
6941;SDS011;3510;43.200;27.920;2023-03-19T18:13:54;12.80;;;7.87;;
6941;SDS011;3510;43.200;27.920;2023-03-19T18:16:22;19.37;;;7.67;;
6941;SDS011;3510;43.200;27.920;2023-03-19T18:18:52;20.00;;;9.20;;
6941;SDS011;3510;43.200;27.920;2023-03-19T18:21:20;20.17;;;8.37;;
6941;SDS011;3510;43.200;27.920;2023-03-19T18:23:47;23.13;;;8.73;;
6941;SDS011;3510;43.200;27.920;2023-03-19T18:26:16;27.03;;;8.33;;
6941;SDS011;3510;43.200;27.920;2023-03-19T18:28:43;17.80;;;9.00;;
6941;SDS011;3510;43.200;27.920;2023-03-19T18:31:12;12.90;;;7.97;;
6941;SDS011;3510;43.200;27.920;2023-03-19T18:33:43;20.50;;;9.50;;
6941;SDS011;3510;43.200;27.920;2023-03-19T18:36:14;21.90;;;9.30;;
6941;SDS011;3510;43.200;27.920;2023-03-19T18:38:46;15.60;;;8.93;;
6941;SDS011;3510;43.200;27.920;2023-03-19T18:41:17;19.90;;;10.03;;
6941;SDS011;3510;43.200;27.920;2023-03-19T18:43:45;21.70;;;8.37;;
6941;SDS011;3510;43.200;27.920;2023-03-19T18:46:12;15.37;;;8.50;;
6941;SDS011;3510;43.200;27.920;2023-03-19T18:48:42;25.40;;;8.93;;
6941;SDS011;3510;43.200;27.920;2023-03-19T18:51:10;17.60;;;8.43;;
6941;SDS011;3510;43.200;27.920;2023-03-19T18:53:37;17.57;;;8.70;;
6941;SDS011;3510;43.200;27.920;2023-03-19T18:56:09;17.43;;;8.40;;
6941;SDS011;3510;43.200;27.920;2023-03-19T18:58:45;15.93;;;7.60;;
6941;SDS011;3510;43.200;27.920;2023-03-19T19:01:13;20.83;;;8.40;;
6941;SDS011;3510;43.200;27.920;2023-03-19T19:03:42;19.20;;;8.57;;
6941;SDS011;3510;43.200;27.920;2023-03-19T19:06:11;12.40;;;8.13;;
6941;SDS011;3510;43.200;27.920;2023-03-19T19:08:45;15.20;;;8.73;;
6941;SDS011;3510;43.200;27.920;2023-03-19T19:11:13;14.43;;;9.00;;
6941;SDS011;3510;43.200;27.920;2023-03-19T19:13:42;16.10;;;8.57;;
6941;SDS011;3510;43.200;27.920;2023-03-19T19:16:13;21.07;;;7.97;;
6941;SDS011;3510;43.200;27.920;2023-03-19T19:18:43;20.77;;;8.43;;
6941;SDS011;3510;43.200;27.920;2023-03-19T19:21:10;19.55;;;10.07;;
6941;SDS011;3510;43.200;27.920;2023-03-19T19:23:37;21.80;;;10.73;;
6941;SDS011;3510;43.200;27.920;2023-03-19T19:26:04;13.37;;;8.60;;
6941;SDS011;3510;43.200;27.920;2023-03-19T19:28:33;12.20;;;8.40;;
6941;SDS011;3510;43.200;27.920;2023-03-19T19:31:04;17.23;;;8.20;;
6941;SDS011;3510;43.200;27.920;2023-03-19T19:33:31;14.00;;;8.03;;
6941;SDS011;3510;43.200;27.920;2023-03-19T19:36:00;14.57;;;8.93;;
6941;SDS011;3510;43.200;27.920;2023-03-19T19:38:27;14.40;;;8.53;;
6941;SDS011;3510;43.200;27.920;2023-03-19T19:40:55;25.95;;;15.80;;
6941;SDS011;3510;43.200;27.920;2023-03-19T19:43:24;19.60;;;9.47;;
6941;SDS011;3510;43.200;27.920;2023-03-19T19:45:56;15.53;;;8.00;;
6941;SDS011;3510;43.200;27.920;2023-03-19T19:48:25;10.60;;;7.50;;
6941;SDS011;3510;43.200;27.920;2023-03-19T19:50:54;15.00;;;8.00;;
6941;SDS011;3510;43.200;27.920;2023-03-19T19:53:22;18.75;;;9.98;;
6941;SDS011;3510;43.200;27.920;2023-03-19T19:55:50;20.50;;;10.25;;
6941;SDS011;3510;43.200;27.920;2023-03-19T19:58:18;21.80;;;9.30;;
6941;SDS011;3510;43.200;27.920;2023-03-19T20:00:51;12.67;;;8.87;;
6941;SDS011;3510;43.200;27.920;2023-03-19T20:03:19;15.73;;;8.83;;
6941;SDS011;3510;43.200;27.920;2023-03-19T20:05:58;20.90;;;11.18;;
6941;SDS011;3510;43.200;27.920;2023-03-19T20:08:26;23.20;;;10.90;;
6941;SDS011;3510;43.200;27.920;2023-03-19T20:10:54;17.47;;;9.80;;
6941;SDS011;3510;43.200;27.920;2023-03-19T20:13:22;13.98;;;9.75;;
6941;SDS011;3510;43.200;27.920;2023-03-19T20:15:55;22.43;;;9.63;;
6941;SDS011;3510;43.200;27.920;2023-03-19T20:18:23;26.30;;;11.20;;
6941;SDS011;3510;43.200;27.920;2023-03-19T20:28:17;13.50;;;11.00;;
6941;SDS011;3510;43.200;27.920;2023-03-19T20:30:47;18.40;;;11.82;;
6941;SDS011;3510;43.200;27.920;2023-03-19T20:33:17;15.50;;;11.65;;
6941;SDS011;3510;43.200;27.920;2023-03-19T20:35:48;12.17;;;10.10;;
6941;SDS011;3510;43.200;27.920;2023-03-19T20:38:16;13.30;;;10.50;;
6941;SDS011;3510;43.200;27.920;2023-03-19T20:40:45;16.87;;;9.30;;
6941;SDS011;3510;43.200;27.920;2023-03-19T20:50:45;12.27;;;9.27;;
6941;SDS011;3510;43.200;27.920;2023-03-19T20:53:13;19.00;;;10.47;;
6941;SDS011;3510;43.200;27.920;2023-03-19T20:55:42;10.77;;;9.00;;
6941;SDS011;3510;43.200;27.920;2023-03-19T20:58:13;13.37;;;9.10;;
6941;SDS011;3510;43.200;27.920;2023-03-19T21:00:43;14.20;;;9.20;;
6941;SDS011;3510;43.200;27.920;2023-03-19T21:03:14;13.37;;;9.60;;
6941;SDS011;3510;43.200;27.920;2023-03-19T21:10:40;10.57;;;9.57;;
6941;SDS011;3510;43.200;27.920;2023-03-19T21:13:11;10.93;;;8.40;;
6941;SDS011;3510;43.200;27.920;2023-03-19T21:15:38;9.67;;;8.47;;
6941;SDS011;3510;43.200;27.920;2023-03-19T21:18:05;12.87;;;8.30;;
6941;SDS011;3510;43.200;27.920;2023-03-19T21:20:39;11.73;;;7.83;;
6941;SDS011;3510;43.200;27.920;2023-03-19T21:23:09;14.43;;;8.60;;
6941;SDS011;3510;43.200;27.920;2023-03-19T21:25:42;13.70;;;8.63;;
6941;SDS011;3510;43.200;27.920;2023-03-19T21:28:12;14.15;;;10.45;;
6941;SDS011;3510;43.200;27.920;2023-03-19T21:30:47;13.83;;;10.93;;
6941;SDS011;3510;43.200;27.920;2023-03-19T21:33:19;12.70;;;8.83;;
6941;SDS011;3510;43.200;27.920;2023-03-19T21:35:48;14.40;;;10.67;;
6941;SDS011;3510;43.200;27.920;2023-03-19T21:38:16;25.07;;;9.60;;
6941;SDS011;3510;43.200;27.920;2023-03-19T21:40:42;11.80;;;8.57;;
6941;SDS011;3510;43.200;27.920;2023-03-19T21:43:14;10.43;;;8.57;;
6941;SDS011;3510;43.200;27.920;2023-03-19T21:45:46;16.27;;;9.33;;
6941;SDS011;3510;43.200;27.920;2023-03-19T21:48:20;16.23;;;8.63;;
6941;SDS011;3510;43.200;27.920;2023-03-19T21:50:49;22.47;;;9.43;;
6941;SDS011;3510;43.200;27.920;2023-03-19T21:53:27;21.23;;;9.00;;
6941;SDS011;3510;43.200;27.920;2023-03-19T21:55:55;10.17;;;8.70;;
6941;SDS011;3510;43.200;27.920;2023-03-19T21:58:27;10.00;;;8.10;;
6941;SDS011;3510;43.200;27.920;2023-03-19T23:02:36;12.43;;;10.73;;
6941;SDS011;3510;43.200;27.920;2023-03-19T23:05:11;14.40;;;12.90;;
6941;SDS011;3510;43.200;27.920;2023-03-19T23:07:51;17.08;;;13.85;;
6941;SDS011;3510;43.200;27.920;2023-03-19T23:10:19;15.70;;;11.83;;
6941;SDS011;3510;43.200;27.920;2023-03-19T23:12:47;15.68;;;11.88;;
6941;SDS011;3510;43.200;27.920;2023-03-19T23:15:14;17.90;;;12.18;;
6941;SDS011;3510;43.200;27.920;2023-03-19T23:17:42;16.98;;;11.95;;
6941;SDS011;3510;43.200;27.920;2023-03-19T23:20:11;17.33;;;12.43;;
6941;SDS011;3510;43.200;27.920;2023-03-19T23:22:40;17.92;;;12.85;;
6941;SDS011;3510;43.200;27.920;2023-03-19T23:25:11;14.70;;;12.48;;
6941;SDS011;3510;43.200;27.920;2023-03-19T23:27:39;16.75;;;12.18;;
6941;SDS011;3510;43.200;27.920;2023-03-19T23:30:11;15.40;;;13.00;;
6941;SDS011;3510;43.200;27.920;2023-03-19T23:32:45;21.10;;;13.02;;
6941;SDS011;3510;43.200;27.920;2023-03-19T23:35:14;21.65;;;13.57;;
6941;SDS011;3510;43.200;27.920;2023-03-19T23:37:44;15.83;;;12.07;;
6941;SDS011;3510;43.200;27.920;2023-03-19T23:47:41;24.33;;;13.50;;
6941;SDS011;3510;43.200;27.920;2023-03-19T23:50:08;17.10;;;12.47;;
6941;SDS011;3510;43.200;27.920;2023-03-19T23:52:37;18.23;;;11.10;;
6941;SDS011;3510;43.200;27.920;2023-03-19T23:55:05;13.57;;;9.63;;
6941;SDS011;3510;43.200;27.920;2023-03-19T23:57:33;22.15;;;13.13;;
